Valentino Lombardo

Chefscout - Frosinone
23 Apr 2028
Sonntag
Verarbeitung

Persönlichkeit

Anpassungsfähigkeit (8) Ehrgeiz (14) Kontroverse (6) Loyalität (5) Druck (8) Professionalität (16) Fairness (9) Temperament (3)

Profil

Trainerstil Demokratisch
Lizenz Kontinentale A
Entschlossenheit 8
Menschenführung 11
Motivation 11
Disziplin 12
Arbeitszufriedenheit
100%
Ermüdung
0%
Rolle Chefscout
Gehalt 81.8K p/W
Vertrag 14.03.2029

Leistung

Verhalten Gut
Trainingseffektivität
43%
Spielerentwicklung
50%
Verletzungsprävention
35%
Taktische Umsetzung
20%

Letzte Ereignisse

Spieler begutachtet jetzt
Nahm an einer Scouting-Besprechung teil jetzt
Empfahl ein Transferziel jetzt
Nahm an einer Scouting-Besprechung teil jetzt
Nahm an einer Scouting-Besprechung teil jetzt
Spieler begutachtet jetzt
Spieler begutachtet jetzt
Spieler begutachtet 7T her

Aktuell beobachtet

202
Spieler Verein Status Fähigkeit Vertrauen Beobachtet Zuletzt beobachtet Letzte Stimme
Rhys Chadwick AFC Wimbledon Aktiv 103 / 111 40% 3 22.04.2028 -
Salvador Blopá Sporting CP Aktiv 126 / 128 40% 14 22.04.2028 -
Trey Nyoni Rotherham United Aktiv 136 / 144 40% 3 22.04.2028 -
Jorthy Mokio ADO Den Haag Aktiv 131 / 140 40% 5 21.04.2028 -
Jan Bürger Northampton Town Aktiv 124 / 124 40% 5 21.04.2028 -
Andrea Bertoncini Triestina Aktiv 96 / 107 40% 6 19.04.2028 -
Finn Jeltsch VfB Stuttgart Aktiv 139 / 139 40% 7 19.04.2028 -
Josh Acheampong Everton Aktiv 140 / 142 40% 5 19.04.2028 -
Nicolò Moranduzzo Renate Aktiv 92 / 108 40% 4 18.04.2028 -
Giovanni Leoni Lincoln City Aktiv 141 / 149 40% 2 18.04.2028 -
Federico Matarán Giana Erminio Aktiv 102 / 108 40% 8 17.04.2028 -
Alessio Insignito Spezia Aktiv 106 / 115 40% 2 17.04.2028 -
Andrea Cogoni Cosenza Aktiv 112 / 120 40% 4 17.04.2028 -
Germán Barbas Burgos Aktiv 113 / 121 40% 5 16.04.2028 -
Bernardo Lima Porto Aktiv 107 / 119 40% 5 16.04.2028 -
Martim Cunha Porto Aktiv 107 / 118 40% 11 15.04.2028 -
Honest Ahanor Atalanta Aktiv 139 / 135 40% 7 15.04.2028 -
Ayden Heaven Portsmouth Aktiv 146 / 155 40% 6 15.04.2028 -
Simone Kosijer Triestina Aktiv 103 / 104 40% 6 14.04.2028 -
Josh King Newcastle United Aktiv 139 / 145 40% 12 14.04.2028 -
Miguel Figueiredo Benfica Aktiv 116 / 125 40% 7 13.04.2028 -
Nathan De Cat SC Freiburg Aktiv 132 / 141 40% 1 13.04.2028 -
Riquelme Thompson-Jones Accrington Stanley Aktiv 110 / 112 40% 4 09.04.2028 -
Augusto Bando Ascoli Aktiv 112 / 122 40% 2 09.04.2028 -
Olivier Leroux Mouscron Aktiv 107 / 113 40% 13 08.04.2028 -
Chris Rigg Sunderland Aktiv 135 / 146 40% 2 08.04.2028 -
Jorge Moreno Athletic Bilbao Aktiv 127 / 128 40% 7 31.03.2028 -
Christos Mouzakitis Hull City Aktiv 134 / 140 40% 2 30.03.2028 -
Vinícius Lira São Paulo Aktiv 118 / 132 40% 6 28.03.2028 -
Mattia Puzone Siracusa Aktiv 97 / 112 40% 7 27.03.2028 -
Daniel Banjaqui Benfica Aktiv 121 / 125 40% 3 22.03.2028 -
Tobiáš Pališčák Zlin Aktiv 95 / 116 40% 2 13.03.2028 -
Adnan Nainggolan KV Oostende Aktiv 108 / 109 40% 3 10.03.2028 -
Matvey Bardachev Zenit Aktiv 106 / 112 40% 3 08.03.2028 -
Itumeleng Jali Spezia Aktiv 112 / 123 40% 2 07.03.2028 -
Olivier Mambwa Young Boys Aktiv 111 / 114 40% 2 28.02.2028 -
Pedro Soma San Diego Football Club Aktiv 110 / 125 40% 3 26.02.2028 -
Kiani Inge Groningen Aktiv 112 / 123 40% 2 22.02.2028 -
Andrey Ivlev Nizhniy Novgorod Aktiv 105 / 113 40% 1 17.02.2028 -
Colin Guske Orlando City Aktiv 96 / 108 40% 1 11.02.2028 -
Luka Vušković Tottenham Aktiv 144 / 150 40% 1 08.02.2028 -
Fabio Depaoli Sampdoria Bericht bereit 122 / 119 79% 1 31.01.2028 -
Nicolò Brighenti Catanzaro Bericht bereit 119 / 120 79% 1 24.01.2028 -
Sebastián Ramírez Aguilas Doradas Aktiv 115 / 119 40% 5 10.01.2028 -
Mao Hosoya Santos Bericht bereit 134 / 135 67% 1 01.01.2028 -
Kwesi Sorotu Badori Berekum Chelsea Aktiv 94 / 94 40% 2 31.12.2027 -
Yury Oyarzo Racing Aktiv 85 / 104 40% 1 31.12.2027 -
Matias Siltanen Malmo FF Verloren 125 / 124 40% 3 30.12.2027 -
Nicolas Sport Recife Aktiv 112 / 105 40% 2 30.12.2027 -
Niccolò Fortini Fiorentina Aktiv 138 / 148 40% 1 29.12.2027 -
Victor Hernandez Santa Fe Aktiv 117 / 138 40% 6 28.12.2027 -
Juan Camilo Córdoba Deportivo Pereira Aktiv 86 / 106 40% 1 28.12.2027 -
Pedro Vian Seewald Dolomiti Bellunesi Aktiv 99 / 112 40% 4 25.12.2027 -
Ignacio Fernández Boston River Aktiv 89 / 95 40% 2 24.12.2027 -
Jon Esenga IF Elfsborg Aktiv 94 / 115 40% 2 24.12.2027 -
Ivan Giraldo Valencia Aktiv 128 / 126 40% 9 22.12.2027 -
Joel Ezra Enyimba Aktiv 89 / 100 40% 2 22.12.2027 -
Diego Vargas Universidad de Concepcion Aktiv 100 / 110 40% 1 18.12.2027 -
Hugo Rojas Instituto Aktiv 108 / 100 40% 2 17.12.2027 -
Agustín De la Cuesta Racing Aktiv 109 / 120 40% 1 17.12.2027 -
Marco Morigi Caracas Aktiv 94 / 83 40% 1 16.12.2027 -
Lucas Camejo River Plate Aktiv 81 / 98 40% 2 15.12.2027 -
Frederik Damkjer Viborg Aktiv 88 / 90 40% 1 14.12.2027 -
Francisco Triver River Plate Aktiv 93 / 101 40% 1 13.12.2027 -
Kerim Alajbegović Modena Aktiv 136 / 145 40% 3 12.12.2027 -
Musa Malik Ikorodu City Aktiv 96 / 105 40% 4 12.12.2027 -
Ousseynou Seck Randers Aktiv 115 / 128 40% 1 12.12.2027 -
Emmanuel Ndubueze Shooting Stars Aktiv 84 / 102 40% 2 09.12.2027 -
Joseph Abah Remo Stars Aktiv 87 / 104 40% 1 09.12.2027 -
Luis Yanes Real Cartagena Aktiv 84 / 86 40% 1 08.12.2027 -
Chimobi Igwilo Rangers International Aktiv 90 / 92 40% 1 08.12.2027 -
Alphadjo Cissé Lecce Aktiv 132 / 136 40% 2 07.12.2027 -
Nupe Godstime Bayelsa United Aktiv 96 / 104 40% 1 07.12.2027 -
Kabiru Abdullahi Barau Aktiv 82 / 90 40% 3 06.12.2027 -
Pedro Baltika Aktiv 137 / 147 40% 1 04.12.2027 -
Tomás Parmo Independiente Aktiv 125 / 135 40% 1 04.12.2027 -
Giovanni Baroni Talleres Aktiv 116 / 112 40% 1 30.11.2027 -
Sindre Walle Egeli Udinese Aktiv 138 / 133 40% 2 29.11.2027 -
Gianluca Prestianni Benfica Aktiv 144 / 145 40% 2 29.11.2027 -
Alex Verón Vélez Aktiv 107 / 129 40% 1 29.11.2027 -
Matías Arias Vélez Aktiv 119 / 111 40% 2 28.11.2027 -
Francisco Marchant Colo-Colo Aktiv 97 / 89 40% 1 27.11.2027 -
Tiago Pucciarelli IF Elfsborg Aktiv 103 / 93 40% 2 26.11.2027 -
Robinho Junior Santos Aktiv 110 / 135 40% 1 26.11.2027 -
Abdulrahman Hamisu Niger Tornadoes Aktiv 88 / 100 40% 2 25.11.2027 -
Ruben Ramos LA Galaxy Aktiv 105 / 109 40% 1 22.11.2027 -
Flávio Gonçalves Sporting CP Aktiv 128 / 125 40% 1 21.11.2027 -
Tomás Aranda Boca Juniors Aktiv 117 / 122 40% 1 21.11.2027 -
Keyano Marrah Hammarby Aktiv 95 / 89 40% 1 20.11.2027 -
Idris Ajiya Nasarawa United Aktiv 78 / 82 40% 1 20.11.2027 -
Elion Krosa Odd Aktiv 82 / 103 40% 1 19.11.2027 -
Roberto Insigne Catania Aktiv 112 / 109 79% 1 02.08.2027 -
Kota Tawaratsumida Albirex Niigata Aktiv 133 / 136 66% 1 01.06.2027 -
Kike Pérez Venezia Aktiv 133 / 132 79% 1 01.06.2027 -
Sascha Britschgi AC Milan Aktiv 124 / 126 40% 7 30.05.2027 -
Riyad Idrissi Cagliari Aktiv 121 / 129 40% 6 27.05.2027 -
Riley Owen Stevenage Aktiv 101 / 101 40% 4 27.05.2027 -
Samuele di Benedetto Twente Aktiv 113 / 120 40% 2 26.05.2027 -
Mattia Porro Latina Aktiv 90 / 86 40% 2 25.05.2027 -
Ezra Mayers West Ham United Aktiv 116 / 121 40% 2 24.05.2027 -
Hosea Michael Remo Stars Aktiv 81 / 102 40% 1 24.05.2027 -
Bence Dárdai VfL Wolfsburg Aktiv 132 / 129 40% 3 22.05.2027 -
Francis Gomez Cardiff City Aktiv 109 / 110 40% 5 20.05.2027 -
Kazunari Kita Real Sociedad Aktiv 102 / 110 40% 6 20.05.2027 -
Tiago Freitas Benfica Aktiv 108 / 109 40% 6 16.05.2027 -
Jacopo Bacci Sorrento Aktiv 103 / 110 40% 2 12.05.2027 -
Bongani Jali Free State Stars Aktiv 99 / 98 40% 6 08.05.2027 -
Jake Batty Plymouth Argyle Aktiv 102 / 110 40% 3 27.04.2027 -
Matvey Kislyak CSKA Moscow Aktiv 134 / 132 40% 4 27.04.2027 -
David Ozoh Derby County Aktiv 116 / 123 40% 2 19.04.2027 -
Pietro Reggiori Pro Patria Aktiv 86 / 103 40% 7 18.04.2027 -
Tommaso Cecotti Carpi Aktiv 92 / 98 40% 5 15.04.2027 -
Charlie Gray Fleetwood Town Aktiv 94 / 90 40% 1 12.04.2027 -
Amine Boukamir Charleroi Aktiv 97 / 102 40% 2 10.04.2027 -
Leandro Martins Benfica Aktiv 95 / 100 40% 4 09.04.2027 -
Gonçalo Oliveira Benfica Aktiv 109 / 113 40% 5 07.04.2027 -
Afriyie Sulemana WAFA Aktiv 90 / 94 40% 2 01.04.2027 -
Davide Bartesaghi AC Milan Aktiv 131 / 130 40% 1 01.04.2027 -
Alessandro Zoboletti Sambenedettese Aktiv 92 / 90 40% 7 30.03.2027 -
Konta Ismaily Aktiv 94 / 100 40% 1 25.03.2027 -
Dmitry Pestryakov Krasnodar Aktiv 111 / 133 40% 5 24.03.2027 -
Axel Frugone Athletic Bilbao Aktiv 120 / 121 40% 2 12.03.2027 -
Alexandro Maidana Eibar Aktiv 110 / 125 40% 1 08.03.2027 -
Samuele Diodato Lumezzane Aktiv 87 / 97 40% 1 04.03.2027 -
Edwin Asamoah Berekum Chelsea Aktiv 86 / 98 40% 4 26.02.2027 -
Federico Valentini Forli Aktiv 89 / 88 40% 2 22.02.2027 -
Cemran Dansin Orlando Pirates Aktiv 107 / 116 40% 1 09.02.2027 -
Kamaldeen Atiemo Wa All Stars Aktiv 105 / 109 40% 1 08.02.2027 -
Simphiwe Selepe Orlando Pirates Aktiv 110 / 116 40% 1 03.02.2027 -
Sampson Dweh Mallorca Aktiv 133 / 134 66% 1 01.01.2027 -
Amin Sarr Hellas Verona Aktiv 131 / 120 40% 6 31.12.2026 Beobachten
Luca Moro Padova Aktiv 123 / 112 40% 4 31.12.2026 -
Wandile Duba ASO Chlef Aktiv 110 / 111 40% 1 31.12.2026 -
João Félix Dinamo Moscow Aktiv 152 / 148 40% 2 30.12.2026 -
Pontus Almqvist Parma Aktiv 132 / 121 40% 1 30.12.2026 -
Nadir Zortea Bologna Aktiv 141 / 139 40% 1 30.12.2026 -
Armstrong Oko-Flex Levski Aktiv 117 / 127 40% 1 30.12.2026 -
Nicolò Fagioli Fiorentina Aktiv 141 / 147 40% 1 26.12.2026 -
Kirill Glebov CSKA Moscow Aktiv 123 / 116 40% 2 25.12.2026 -
Marcelo Allende Mamelodi Sundowns Aktiv 136 / 136 40% 1 25.12.2026 -
Vitinha Genoa Aktiv 129 / 135 40% 2 23.12.2026 -
Bernat Guiu Virtus Entella Aktiv 119 / 116 40% 1 23.12.2026 -
Ivo Mammini Beitar Jerusalem Aktiv 115 / 117 40% 3 22.12.2026 -
Etiosa Ighodaro Kaizer Chiefs Aktiv 108 / 102 40% 2 21.12.2026 -
Matteo Rover Reggiana Aktiv 123 / 123 40% 1 20.12.2026 -
Giuseppe Di Serio Spezia Aktiv 117 / 111 40% 1 18.12.2026 -
Santiago Pierotti Lecce Aktiv 134 / 126 40% 4 17.12.2026 -
Peter Valjent FK Senica Aktiv 112 / 132 40% 1 16.12.2026 -
Yeangel Montero Naxxar Lions Aktiv 110 / 94 40% 1 15.12.2026 -
Lassina Traoré Shakhtar Aktiv 123 / 123 40% 1 14.12.2026 -
Matheus Davó Maccabi Netanya Aktiv 115 / 108 40% 1 13.12.2026 -
Talles Magno New York City Aktiv 124 / 119 40% 3 12.12.2026 -
Stiven Shpendi Empoli Aktiv 114 / 119 40% 6 12.12.2026 -
Lewis Ferguson Bologna Aktiv 144 / 146 40% 1 12.12.2026 -
Lorenzo Colombo Genoa Aktiv 133 / 142 40% 5 11.12.2026 -
Gianluca Scamacca Atalanta Aktiv 147 / 153 40% 2 11.12.2026 -
Radek Šiler Podbrezova Aktiv 112 / 112 40% 1 11.12.2026 -
Alberto Soro Dinamo Bucharest Aktiv 125 / 107 40% 2 09.12.2026 -
Igor Jesus Nottingham Forest Aktiv 145 / 137 40% 5 07.12.2026 -
Nicolò Zaniolo Udinese Aktiv 140 / 140 40% 8 06.12.2026 -
Andrea Colpani Monza Aktiv 137 / 143 40% 2 06.12.2026 -
Mehdi Dorval Catanzaro Aktiv 132 / 122 40% 1 06.12.2026 -
Mattia Felici Cagliari Aktiv 124 / 131 40% 1 04.12.2026 -
Suleiman Camara Slovan Bratislava Aktiv 118 / 123 40% 1 03.12.2026 -
Matej Trusa DAC Dunajska Streda Aktiv 110 / 120 40% 2 01.12.2026 -
Assane Diao Como Aktiv 150 / 151 40% 3 26.11.2026 -
Wessam Abou Ali Columbus Crew Aktiv 128 / 127 40% 4 24.11.2026 -
Samuele Vignato HNK Rijeka Aktiv 125 / 127 40% 1 22.11.2026 -
Giacomo Raspadori Atalanta Aktiv 143 / 147 40% 1 21.11.2026 -
Bienvenue Kanakimana Zbrojovka Brno Aktiv 124 / 124 40% 1 19.11.2026 -
Sota Kitano Red Bull Salzburg Aktiv 119 / 128 40% 3 18.11.2026 Beobachten
Tadeo Allende Inter Miami CF Aktiv 128 / 135 40% 3 17.11.2026 -
Don Bolsius Ascoli Aktiv 108 / 96 40% 1 17.11.2026 -
Willem Geubbels Lecce Aktiv 125 / 127 40% 3 14.11.2026 -
Jens Petter Hauge Bodo/Glimt Aktiv 148 / 137 40% 1 14.11.2026 -
Marco Pašalić Orlando City Aktiv 123 / 128 40% 1 11.11.2026 -
David Miculescu FCSB Aktiv 113 / 111 40% 2 05.11.2026 -
Bradley Zwane SuperSport United Aktiv 117 / 108 40% 1 04.11.2026 -
Tommaso Pobega Bologna Aktiv 139 / 140 40% 2 03.11.2026 -
Kelvin Yeboah Minnesota United FC Aktiv 132 / 130 40% 1 30.10.2026 -
Marco Tumminello Benevento Aktiv 110 / 109 40% 2 29.10.2026 -
Germán Berterame Inter Miami CF Aktiv 132 / 129 40% 2 29.10.2026 -
Reda Khadra Qarabag Aktiv 131 / 124 40% 1 27.10.2026 -
André Wolverhampton Aktiv 137 / 149 40% 1 27.10.2026 -
Tyrese Campbell Sheffield United Aktiv 126 / 130 40% 3 25.10.2026 -
Bénie Traoré New York City Aktiv 122 / 138 40% 1 21.10.2026 -
Assad Al Hamlawi Universitatea Craiova Aktiv 127 / 108 40% 1 20.10.2026 -
Kwadwo Baah Watford Aktiv 130 / 125 40% 1 19.10.2026 -
Ramiro Ruiz Rodríguez Atlético Tucumán Aktiv 121 / 127 40% 1 13.10.2026 -
Jesus Ferreira Seattle Sounders Aktiv 124 / 124 40% 1 12.10.2026 -
Jackson Muleka Konyaspor Aktiv 121 / 111 40% 1 12.10.2026 -
Lucas Da Cunha Como Aktiv 138 / 143 40% 1 11.10.2026 -
Joshua Zirkzee Manchester United Aktiv 141 / 147 40% 1 07.10.2026 -
Duk Atlas Aktiv 109 / 102 40% 1 06.10.2026 -
Alejandro Piedrahita Deportivo Pereira Aktiv 129 / 133 40% 1 06.10.2026 -
Matt O'Riley Brighton Aktiv 140 / 142 40% 1 06.10.2026 -
Florentino Luís Ipswich Town Aktiv 139 / 144 40% 1 06.10.2026 -
Edoardo Pieragnolo Sassuolo Aktiv 125 / 129 76% 1 17.08.2026 Befürworten
Mateus Mané Burnley Aktiv 127 / 144 40% 1 17.08.2026 -
Ignacio Perruzzi San Lorenzo Aktiv 119 / 132 40% 1 11.08.2026 -
Ollie Scarles West Ham United Aktiv 132 / 143 40% 1 01.08.2026 -
Lucas Bergvall Tottenham Aktiv 142 / 156 40% 1 01.08.2026 -